Time;durP1;ratioP1;P1;durP2;ratioP2;P2;SDS_P1;SDS_P2;PMS_P1;PMS_P2;Temp;Humidity;BMP_temperature;BMP_pressure;BME280_temperature;BME280_humidity;BME280_pressure;Samples;Min_cycle;Max_cycle;Signal;HPM_P1;HPM_P2
2023/03/03 00:02:12;;;;;;;3.77;3.47;;;;;;;6.43;61.19;94948.69;4984463;28;20354;-65
2023/03/03 00:04:38;;;;;;;3.67;3.37;;;;;;;6.21;61.99;94949.66;4982919;28;20289;-65
2023/03/03 00:07:04;;;;;;;3.93;3.53;;;;;;;6.22;61.82;94956.53;4985653;28;20219;-65
2023/03/03 00:09:29;;;;;;;3.50;3.20;;;;;;;6.37;61.54;94950.03;4985815;28;20254;-65
2023/03/03 00:11:57;;;;;;;3.60;3.30;;;;;;;6.38;61.53;94943.84;4984875;28;20231;-65
2023/03/03 00:14:28;;;;;;;4.47;3.93;;;;;;;6.33;61.49;94932.97;4980971;28;20215;-66
2023/03/03 00:16:56;;;;;;;4.10;3.57;;;;;;;6.22;62.32;94938.25;4980059;28;20191;-66
2023/03/03 00:19:22;;;;;;;4.40;4.00;;;;;;;6.05;62.56;94939.66;4985806;28;20268;-66
2023/03/03 00:21:50;;;;;;;3.90;3.60;;;;;;;6.22;62.05;94940.88;4981610;28;20232;-64
2023/03/03 00:24:36;;;;;;;4.10;3.80;;;;;;;6.07;62.55;94941.19;4984513;28;20235;-67
2023/03/03 00:27:28;;;;;;;4.53;4.20;;;;;;;6.17;62.25;94936.88;4982307;28;20250;-66
2023/03/03 00:29:56;;;;;;;4.53;4.13;;;;;;;6.29;62.03;94936.81;4986460;28;20243;-66
2023/03/03 00:32:23;;;;;;;4.60;4.20;;;;;;;6.21;62.25;94939.22;4979480;28;20584;-62
2023/03/03 00:34:51;;;;;;;4.73;4.33;;;;;;;6.26;61.66;94939.66;4987610;28;20202;-62
2023/03/03 00:37:33;;;;;;;4.93;4.53;;;;;;;6.26;62.12;94934.44;4966440;28;20231;-62
2023/03/03 00:40:24;;;;;;;4.90;4.40;;;;;;;6.29;62.31;94935.00;4983513;28;20239;-63
2023/03/03 00:42:55;;;;;;;4.53;4.23;;;;;;;6.34;62.11;94930.22;4984368;28;20231;-63
2023/03/03 00:45:30;;;;;;;5.53;5.07;;;;;;;6.28;61.90;94922.91;4985262;28;20239;-62
2023/03/03 00:47:56;;;;;;;5.73;5.10;;;;;;;6.24;62.09;94923.28;4984179;28;20306;-65
2023/03/03 00:50:33;;;;;;;5.17;4.70;;;;;;;6.24;62.21;94912.84;4981457;28;20231;-66
2023/03/03 00:53:26;;;;;;;5.27;4.77;;;;;;;6.15;62.16;94909.22;4987425;28;20218;-64
2023/03/03 00:55:52;;;;;;;5.43;4.93;;;;;;;6.19;62.26;94903.59;4969604;28;20234;-68
2023/03/03 00:58:20;;;;;;;5.40;4.90;;;;;;;6.25;62.15;94902.25;4981471;28;20239;-68
2023/03/03 01:00:48;;;;;;;5.00;4.50;;;;;;;5.94;63.10;94894.38;4989110;28;20306;-69
2023/03/03 01:03:22;;;;;;;4.93;4.53;;;;;;;6.10;62.66;94890.50;4985506;28;20746;-69
2023/03/03 01:05:48;;;;;;;5.00;4.60;;;;;;;6.27;62.06;94891.69;4989605;28;20246;-69
2023/03/03 01:08:14;;;;;;;5.37;4.87;;;;;;;6.18;62.16;94888.91;4995836;28;20191;-69
2023/03/03 01:10:47;;;;;;;5.57;4.93;;;;;;;6.05;62.54;94893.50;4986560;28;20218;-69
2023/03/03 01:13:12;;;;;;;5.07;4.57;;;;;;;6.21;62.19;94884.38;4990428;28;20249;-69
2023/03/03 01:15:39;;;;;;;4.90;4.50;;;;;;;6.26;61.74;94879.63;4992327;28;20255;-68
2023/03/03 01:18:05;;;;;;;4.43;4.07;;;;;;;5.88;62.81;94878.34;4992842;28;20230;-69
2023/03/03 01:20:30;;;;;;;4.87;4.37;;;;;;;6.08;62.68;94880.19;5000764;28;20211;-63
2023/03/03 01:22:56;;;;;;;5.10;4.60;;;;;;;6.12;62.33;94885.97;4990251;28;20198;-66
2023/03/03 01:25:21;;;;;;;4.83;4.43;;;;;;;6.16;62.19;94887.38;4991505;28;20223;-66
2023/03/03 01:27:47;;;;;;;5.33;4.83;;;;;;;6.10;62.33;94880.06;4987450;28;20258;-66
2023/03/03 01:30:13;;;;;;;4.80;4.40;;;;;;;5.80;63.57;94883.38;4987757;28;20231;-65
2023/03/03 01:32:38;;;;;;;5.33;4.93;;;;;;;6.02;62.79;94877.25;4987686;28;20227;-66
2023/03/03 01:35:04;;;;;;;5.30;4.80;;;;;;;6.14;62.87;94873.63;4987910;28;20246;-66
2023/03/03 01:37:29;;;;;;;5.07;4.67;;;;;;;6.15;62.28;94878.72;4989500;28;20219;-68
2023/03/03 01:39:55;;;;;;;5.73;5.23;;;;;;;6.01;63.20;94867.75;4990895;28;20231;-67
2023/03/03 01:42:21;;;;;;;5.77;5.27;;;;;;;5.95;63.32;94871.72;4987292;28;20395;-66
2023/03/03 01:44:47;;;;;;;5.63;5.13;;;;;;;6.04;63.18;94870.97;4989493;28;20321;-68
2023/03/03 01:47:30;;;;;;;6.97;5.50;;;;;;;6.14;62.72;94871.81;4993962;28;20196;-63
2023/03/03 01:50:05;;;;;;;5.87;5.37;;;;;;;6.17;62.86;94874.22;4973052;28;20228;-64
2023/03/03 01:52:43;;;;;;;5.13;4.63;;;;;;;6.21;62.42;94868.72;4963997;28;20235;-63
2023/03/03 01:55:20;;;;;;;5.07;4.57;;;;;;;6.17;62.35;94875.97;4960667;28;20220;-64
2023/03/03 01:57:54;;;;;;;5.63;5.13;;;;;;;6.10;62.58;94872.22;4961127;28;20302;-64
2023/03/03 02:00:20;;;;;;;5.00;4.60;;;;;;;6.24;62.14;94871.91;4967178;28;20234;-64
2023/03/03 02:02:45;;;;;;;6.17;5.20;;;;;;;5.99;62.67;94867.91;4961552;28;20239;-64
2023/03/03 02:05:13;;;;;;;5.43;4.93;;;;;;;6.04;62.89;94873.56;4963979;28;20196;-64
2023/03/03 02:07:39;;;;;;;5.23;4.73;;;;;;;6.10;62.66;94874.84;4966144;28;20431;-67
2023/03/03 02:10:09;;;;;;;5.43;4.80;;;;;;;6.06;62.89;94869.03;4960219;28;20212;-67
2023/03/03 02:12:42;;;;;;;5.60;5.10;;;;;;;5.94;63.24;94873.50;4963582;28;20319;-65
2023/03/03 02:15:16;;;;;;;5.50;5.00;;;;;;;6.05;63.18;94869.19;4961316;28;20256;-63
2023/03/03 02:17:42;;;;;;;5.10;4.60;;;;;;;6.15;62.75;94868.28;4960535;28;20233;-63
2023/03/03 02:20:38;;;;;;;5.20;4.70;;;;;;;6.21;62.24;94871.34;4960228;28;20204;-65
2023/03/03 02:23:15;;;;;;;5.03;4.60;;;;;;;6.21;62.00;94868.72;4980495;28;20235;-64
2023/03/03 02:25:55;;;;;;;5.33;4.83;;;;;;;6.25;61.94;94862.28;4980997;28;20228;-66
2023/03/03 02:28:23;;;;;;;4.77;4.37;;;;;;;6.16;62.41;94880.38;4983889;28;20306;-65
2023/03/03 02:30:49;;;;;;;4.73;4.33;;;;;;;6.25;61.97;94868.31;4981087;28;20228;-65
2023/03/03 02:33:15;;;;;;;5.10;4.70;;;;;;;6.20;62.17;94870.47;4983807;28;20250;-68
2023/03/03 02:35:41;;;;;;;5.10;4.70;;;;;;;6.19;62.44;94869.66;4983587;28;20314;-67
2023/03/03 02:38:10;;;;;;;4.90;4.40;;;;;;;6.12;62.06;94876.38;4981973;28;20211;-66
2023/03/03 02:40:42;;;;;;;5.33;4.87;;;;;;;5.97;63.01;94870.63;4980812;28;20228;-67
2023/03/03 02:43:10;;;;;;;5.60;5.10;;;;;;;6.01;63.06;94872.97;4980465;28;20227;-65
2023/03/03 02:45:41;;;;;;;5.63;5.13;;;;;;;6.08;62.60;94868.91;4980407;28;20242;-67
2023/03/03 02:48:07;;;;;;;5.90;5.40;;;;;;;6.10;62.34;94870.44;4982119;28;20222;-67
2023/03/03 02:50:32;;;;;;;5.73;5.13;;;;;;;6.09;62.27;94870.56;4981590;28;20261;-63
2023/03/03 02:52:57;;;;;;;5.80;5.30;;;;;;;6.11;62.66;94876.50;4978412;28;20187;-64
2023/03/03 02:55:23;;;;;;;5.63;5.13;;;;;;;6.14;62.43;94864.00;4983320;28;20222;-63
2023/03/03 02:57:48;;;;;;;6.70;6.10;;;;;;;6.16;62.39;94864.69;4969935;28;20495;-66
2023/03/03 03:00:14;;;;;;;6.70;6.10;;;;;;;6.11;62.50;94866.03;4980624;28;20235;-66
2023/03/03 03:02:39;;;;;;;6.20;5.70;;;;;;;6.18;61.91;94861.97;4983045;28;20223;-68
2023/03/03 03:05:05;;;;;;;6.87;6.13;;;;;;;6.09;62.28;94855.72;4983786;28;20190;-63
2023/03/03 03:07:30;;;;;;;6.13;5.63;;;;;;;6.18;62.15;94859.38;4981701;28;20237;-62
2023/03/03 03:09:56;;;;;;;6.57;5.83;;;;;;;6.07;62.49;94862.88;4980879;28;20234;-62
2023/03/03 03:12:21;;;;;;;7.00;6.30;;;;;;;6.19;62.34;94861.00;4982030;28;20318;-64
2023/03/03 03:14:47;;;;;;;6.80;6.20;;;;;;;6.08;63.14;94854.06;4982864;28;20216;-65
2023/03/03 03:17:12;;;;;;;6.80;6.20;;;;;;;6.10;63.15;94862.63;4980227;28;20199;-68
2023/03/03 03:19:38;;;;;;;7.00;6.40;;;;;;;6.08;64.06;94854.06;4980896;28;20223;-62
2023/03/03 03:22:03;;;;;;;6.60;6.00;;;;;;;6.06;64.03;94858.59;4982730;28;20227;-64
2023/03/03 03:24:28;;;;;;;7.20;6.50;;;;;;;6.06;64.15;94858.59;4981989;28;20221;-65
2023/03/03 03:26:54;;;;;;;6.80;6.20;;;;;;;6.10;64.14;94849.56;4981186;28;20338;-65
2023/03/03 03:29:19;;;;;;;6.97;6.37;;;;;;;6.00;64.21;94859.13;4987115;28;20211;-66
2023/03/03 03:31:45;;;;;;;7.40;6.70;;;;;;;5.92;64.53;94851.06;4983493;28;20191;-64
2023/03/03 03:34:10;;;;;;;6.80;6.20;;;;;;;6.00;64.16;94858.28;4987143;28;20232;-64
2023/03/03 03:36:38;;;;;;;8.17;7.37;;;;;;;6.01;64.15;94855.53;4985738;28;20326;-66
2023/03/03 03:39:05;;;;;;;8.47;7.67;;;;;;;6.03;63.82;94853.63;4984776;28;20231;-63
2023/03/03 03:41:30;;;;;;;8.03;7.27;;;;;;;5.96;64.33;94858.56;4983342;28;20282;-62
2023/03/03 03:43:56;;;;;;;8.07;7.33;;;;;;;6.05;64.22;94843.91;4987476;28;20199;-62
2023/03/03 03:46:21;;;;;;;9.03;8.23;;;;;;;5.90;65.26;94848.56;4984626;28;20597;-62
2023/03/03 03:48:47;;;;;;;9.37;8.50;;;;;;;5.95;65.19;94845.63;4984156;28;20314;-62
2023/03/03 03:51:12;;;;;;;8.87;8.00;;;;;;;5.95;65.27;94843.00;4984841;28;20228;-62
2023/03/03 03:53:38;;;;;;;8.43;7.63;;;;;;;6.00;65.13;94837.41;4982155;28;20223;-66
2023/03/03 03:56:03;;;;;;;8.50;7.70;;;;;;;5.96;65.64;94835.06;4988793;28;20200;-66
2023/03/03 03:58:29;;;;;;;9.20;8.30;;;;;;;5.94;65.78;94843.97;4986306;28;20230;-67
2023/03/03 04:00:54;;;;;;;9.27;8.37;;;;;;;5.97;66.02;94833.28;4985462;28;20285;-65
2023/03/03 04:03:20;;;;;;;9.53;8.60;;;;;;;5.96;66.20;94832.44;4982957;28;20263;-67
2023/03/03 04:05:46;;;;;;;9.30;8.40;;;;;;;5.94;65.95;94830.91;4982250;28;20230;-63
2023/03/03 04:08:11;;;;;;;10.27;9.20;;;;;;;5.87;66.94;94837.56;4985406;28;20274;-63
2023/03/03 04:10:37;;;;;;;9.40;8.50;;;;;;;5.92;66.67;94832.78;4984432;28;20239;-63
2023/03/03 04:13:03;;;;;;;9.97;8.97;;;;;;;5.90;66.81;94832.91;4980810;28;20258;-68
2023/03/03 04:15:29;;;;;;;10.10;9.20;;;;;;;5.80;66.87;94839.88;4987186;28;20304;-68
2023/03/03 04:17:54;;;;;;;9.60;8.63;;;;;;;5.89;66.73;94835.66;4983099;28;20231;-64
2023/03/03 04:20:19;;;;;;;10.53;9.43;;;;;;;5.75;67.24;94829.81;4984798;28;20211;-62
2023/03/03 04:22:45;;;;;;;9.60;8.70;;;;;;;5.63;67.09;94830.81;4970399;28;20198;-63
2023/03/03 04:25:14;;;;;;;11.57;9.47;;;;;;;5.67;68.00;94834.84;4984469;28;20250;-63
2023/03/03 04:27:40;;;;;;;10.60;9.57;;;;;;;5.73;67.67;94830.88;4986200;28;20285;-63
2023/03/03 04:30:05;;;;;;;9.27;8.27;;;;;;;5.83;67.67;94823.13;4983441;28;20224;-63
2023/03/03 04:32:32;;;;;;;9.27;8.37;;;;;;;5.59;68.08;94828.59;4986125;28;20211;-64
2023/03/03 04:34:58;;;;;;;10.50;9.40;;;;;;;5.62;68.10;94828.34;4983634;28;20271;-63
2023/03/03 04:37:24;;;;;;;10.90;9.90;;;;;;;5.79;68.13;94830.38;4987114;28;20310;-66
2023/03/03 04:39:49;;;;;;;10.20;9.20;;;;;;;5.74;68.21;94822.09;4988344;28;20231;-67
2023/03/03 04:42:15;;;;;;;10.83;9.83;;;;;;;5.66;68.61;94829.72;4983952;28;20235;-67
2023/03/03 04:44:40;;;;;;;10.70;9.60;;;;;;;5.85;68.13;94831.63;4987972;28;20215;-67
2023/03/03 04:47:05;;;;;;;10.43;9.43;;;;;;;5.71;68.35;94830.19;4985341;28;20197;-66
2023/03/03 04:49:31;;;;;;;11.10;10.00;;;;;;;5.62;69.10;94826.56;4994214;28;20223;-67
2023/03/03 04:51:56;;;;;;;11.07;9.97;;;;;;;5.80;68.53;94831.19;4974769;28;20239;-67
2023/03/03 04:54:22;;;;;;;12.50;10.93;;;;;;;5.84;67.73;94822.16;4969557;28;20314;-66
2023/03/03 04:56:47;;;;;;;12.33;11.20;;;;;;;5.67;68.44;94832.22;4974169;28;20224;-66
2023/03/03 04:59:14;;;;;;;11.37;10.27;;;;;;;5.70;68.46;94831.97;4970468;28;20196;-66
2023/03/03 05:01:39;;;;;;;10.80;9.80;;;;;;;5.75;68.08;94832.41;4970103;28;20228;-67
2023/03/03 05:04:05;;;;;;;12.10;10.93;;;;;;;5.63;69.04;94836.03;4968924;28;20298;-67
2023/03/03 05:06:31;;;;;;;12.80;11.53;;;;;;;5.73;68.50;94836.09;4964569;28;20225;-67
2023/03/03 05:08:56;;;;;;;12.87;10.80;;;;;;;5.84;68.19;94835.22;4965571;28;20239;-66
2023/03/03 05:11:21;;;;;;;13.07;11.77;;;;;;;5.78;68.06;94833.13;4968288;28;20262;-66
2023/03/03 05:13:47;;;;;;;11.60;10.40;;;;;;;5.83;68.12;94838.78;4966208;28;20193;-66
2023/03/03 05:16:13;;;;;;;12.87;11.30;;;;;;;5.86;68.26;94836.75;4969157;28;20231;-67
2023/03/03 05:18:38;;;;;;;11.67;10.47;;;;;;;5.95;67.90;94843.00;4963845;28;20235;-66
2023/03/03 05:21:04;;;;;;;11.70;10.50;;;;;;;5.93;68.05;94842.28;4964477;28;20242;-66
2023/03/03 05:23:30;;;;;;;11.27;10.17;;;;;;;5.77;68.19;94836.66;4964307;28;20203;-63
2023/03/03 05:25:56;;;;;;;12.13;10.07;;;;;;;5.78;68.37;94838.34;4963860;28;20192;-62
2023/03/03 05:28:21;;;;;;;11.60;10.50;;;;;;;5.82;67.96;94847.56;4979064;28;20251;-62
2023/03/03 05:30:47;;;;;;;11.57;10.47;;;;;;;5.84;68.03;94840.44;4981468;28;20220;-62
2023/03/03 05:33:14;;;;;;;11.73;10.53;;;;;;;5.94;68.10;94849.19;4988615;28;20231;-62
2023/03/03 05:35:40;;;;;;;11.57;10.47;;;;;;;5.83;67.96;94851.84;4986068;28;20235;-62
2023/03/03 05:38:05;;;;;;;12.27;11.07;;;;;;;5.72;68.08;94847.47;4985386;28;20199;-62
2023/03/03 05:40:31;;;;;;;12.40;11.20;;;;;;;5.85;67.79;94844.69;4984968;28;20251;-62
2023/03/03 05:42:57;;;;;;;14.10;11.43;;;;;;;5.97;67.55;94846.31;4986171;28;20247;-62
2023/03/03 05:45:23;;;;;;;13.13;11.93;;;;;;;6.03;67.96;94852.81;4985422;28;20228;-62
2023/03/03 05:47:52;;;;;;;13.20;11.90;;;;;;;6.04;67.93;94852.69;4985087;28;20254;-62
2023/03/03 05:50:20;;;;;;;14.67;12.50;;;;;;;6.03;68.05;94853.63;4978574;28;20196;-62
2023/03/03 05:52:52;;;;;;;14.20;12.67;;;;;;;6.02;68.15;94862.44;4985664;28;20278;-62
2023/03/03 05:55:18;;;;;;;16.10;12.47;;;;;;;6.07;67.61;94849.81;4986724;28;20235;-63
2023/03/03 05:57:44;;;;;;;14.40;12.43;;;;;;;6.10;68.02;94856.56;4978933;28;20232;-62
2023/03/03 06:00:11;;;;;;;14.03;12.53;;;;;;;6.00;67.99;94853.88;4984632;28;20274;-66
2023/03/03 06:02:36;;;;;;;14.80;13.30;;;;;;;6.16;67.55;94851.66;4983203;28;20239;-66
2023/03/03 06:05:02;;;;;;;15.03;13.40;;;;;;;6.09;68.11;94860.13;4986113;28;20191;-66
2023/03/03 06:07:27;;;;;;;14.13;12.70;;;;;;;6.24;67.60;94851.00;4983479;28;20784;-60
2023/03/03 06:09:53;;;;;;;13.73;12.33;;;;;;;5.97;68.38;94848.94;4983281;28;20306;-61
2023/03/03 06:12:18;;;;;;;12.50;11.20;;;;;;;6.11;67.65;94851.22;4985322;28;20310;-60
2023/03/03 06:14:44;;;;;;;13.23;11.93;;;;;;;6.14;67.89;94856.16;4981688;28;20223;-60
2023/03/03 06:17:09;;;;;;;13.50;12.20;;;;;;;6.12;67.93;94852.88;4984459;28;20326;-60
2023/03/03 06:19:36;;;;;;;13.17;11.70;;;;;;;6.12;68.25;94858.09;4983326;28;20223;-60
2023/03/03 06:22:01;;;;;;;12.93;11.63;;;;;;;6.25;67.43;94860.47;4985395;28;20235;-64
2023/03/03 06:24:29;;;;;;;13.53;12.23;;;;;;;6.26;68.14;94862.16;4985116;28;20247;-63
2023/03/03 06:26:55;;;;;;;15.43;12.90;;;;;;;6.24;67.98;94860.63;4984197;28;20575;-63
2023/03/03 06:29:21;;;;;;;13.67;12.17;;;;;;;6.11;68.11;94863.44;5000502;28;20238;-64
2023/03/03 06:31:46;;;;;;;14.00;12.40;;;;;;;5.77;68.92;94867.97;4983777;28;20302;-64
2023/03/03 06:34:12;;;;;;;12.60;11.30;;;;;;;6.13;67.98;94867.56;4985435;28;20235;-64
2023/03/03 06:36:37;;;;;;;14.40;12.03;;;;;;;6.10;68.21;94867.84;4983845;28;20230;-60
2023/03/03 06:39:03;;;;;;;14.60;12.47;;;;;;;6.03;67.91;94860.63;4985423;28;20231;-66
2023/03/03 06:41:28;;;;;;;11.47;10.37;;;;;;;6.21;67.62;94863.50;4984032;28;20227;-64
2023/03/03 06:43:54;;;;;;;10.97;9.93;;;;;;;6.17;68.02;94871.59;4983513;28;20294;-64
2023/03/03 06:46:19;;;;;;;12.47;11.17;;;;;;;6.15;67.81;94868.28;4981788;28;20224;-63
2023/03/03 06:48:45;;;;;;;12.23;10.20;;;;;;;6.26;67.28;94870.00;4977629;28;20227;-61
2023/03/03 06:51:38;;;;;;;12.77;10.20;;;;;;;6.29;67.25;94869.72;4981450;28;20222;-63
2023/03/03 06:54:23;;;;;;;11.33;10.23;;;;;;;6.29;67.17;94868.91;4982615;28;20236;-64
2023/03/03 06:56:52;;;;;;;13.40;12.10;;;;;;;6.30;67.34;94871.38;4981997;28;20226;-66
2023/03/03 06:59:20;;;;;;;12.63;11.33;;;;;;;6.14;68.65;94869.22;4982739;28;20199;-67
2023/03/03 07:01:48;;;;;;;12.23;10.47;;;;;;;6.24;68.34;94873.69;4971579;28;20632;-65
2023/03/03 07:04:27;;;;;;;12.37;11.07;;;;;;;6.27;68.37;94873.44;4963401;28;20302;-65
2023/03/03 07:06:54;;;;;;;11.90;10.33;;;;;;;6.44;67.46;94880.66;4959168;28;20284;-64
2023/03/03 07:09:26;;;;;;;12.47;10.93;;;;;;;6.58;67.72;94869.06;4964389;28;20235;-66
2023/03/03 07:11:55;;;;;;;11.13;10.03;;;;;;;6.72;66.99;94880.94;4958392;28;20224;-64
2023/03/03 07:14:21;;;;;;;11.33;10.23;;;;;;;6.69;67.19;94875.97;4961093;28;20203;-65
2023/03/03 07:16:53;;;;;;;12.00;9.27;;;;;;;6.75;67.14;94878.88;4962802;28;20197;-66
2023/03/03 07:19:28;;;;;;;10.10;9.13;;;;;;;6.86;66.54;94870.09;4961888;28;20227;-60
2023/03/03 07:21:54;;;;;;;11.93;10.10;;;;;;;6.89;65.78;94875.06;4960123;28;20223;-65
2023/03/03 07:24:28;;;;;;;10.27;9.10;;;;;;;6.77;66.33;94873.53;4963539;28;20227;-62
2023/03/03 07:27:06;;;;;;;9.40;8.50;;;;;;;6.78;65.36;94875.16;4961492;28;20235;-62
2023/03/03 07:29:33;;;;;;;8.63;7.80;;;;;;;6.82;65.79;94872.16;4961551;28;20184;-66
2023/03/03 07:32:00;;;;;;;9.80;8.90;;;;;;;6.72;65.77;94870.47;4961840;28;20275;-66
2023/03/03 07:34:39;;;;;;;10.03;9.13;;;;;;;6.75;65.87;94872.81;4963777;28;20311;-65
2023/03/03 07:37:39;;;;;;;9.93;8.93;;;;;;;6.79;65.96;94875.06;4962039;28;20215;-64
2023/03/03 07:40:50;;;;;;;11.07;9.87;;;;;;;6.69;66.26;94863.72;4967748;28;20235;-64
2023/03/03 07:43:35;;;;;;;11.10;10.00;;;;;;;6.89;66.20;94871.63;4967038;28;20219;-65
2023/03/03 07:46:10;;;;;;;12.43;11.13;;;;;;;6.94;66.89;94870.25;4972483;28;20231;-65
2023/03/03 07:48:39;;;;;;;11.70;10.60;;;;;;;6.79;67.10;94867.22;4957159;28;20230;-62
2023/03/03 07:51:28;;;;;;;12.80;11.50;;;;;;;6.92;66.64;94866.94;4949609;28;20346;-66
2023/03/03 07:54:19;;;;;;;11.87;10.53;;;;;;;6.92;66.36;94861.72;4950698;28;20233;-65
2023/03/03 07:56:45;;;;;;;11.77;10.67;;;;;;;6.94;67.12;94862.41;4943517;28;20308;-66
2023/03/03 07:59:23;;;;;;;10.57;9.57;;;;;;;6.90;66.19;94855.00;4967409;28;20242;-61
2023/03/03 08:01:52;;;;;;;10.27;9.27;;;;;;;7.02;66.12;94865.19;4962834;28;20320;-65
2023/03/03 08:04:39;;;;;;;9.63;8.63;;;;;;;7.12;65.49;94865.22;4959832;28;20248;-62
2023/03/03 08:07:11;;;;;;;10.67;9.23;;;;;;;7.13;65.45;94858.22;4960577;28;20231;-65
2023/03/03 08:09:41;;;;;;;9.53;8.63;;;;;;;7.18;64.92;94854.22;4959504;28;20263;-64
2023/03/03 08:12:08;;;;;;;11.67;10.47;;;;;;;7.06;65.82;94856.13;4956059;28;20309;-62
2023/03/03 08:14:35;;;;;;;10.10;9.10;;;;;;;7.08;65.18;94863.81;4982670;28;20299;-61
2023/03/03 08:17:06;;;;;;;9.93;8.80;;;;;;;7.05;65.17;94856.25;4967553;28;20204;-66
2023/03/03 08:19:33;;;;;;;11.40;10.27;;;;;;;7.11;65.62;94854.88;4968682;28;20230;-67
2023/03/03 08:22:15;;;;;;;12.00;10.80;;;;;;;6.97;66.33;94862.16;4966461;28;20237;-64
2023/03/03 08:24:40;;;;;;;13.27;11.87;;;;;;;7.03;66.47;94856.41;4964168;28;20233;-62
2023/03/03 08:27:05;;;;;;;13.40;11.73;;;;;;;6.94;66.69;94851.97;4965627;28;20291;-66
2023/03/03 08:29:31;;;;;;;13.23;11.00;;;;;;;6.94;66.96;94854.59;4961650;28;20200;-65
2023/03/03 08:31:56;;;;;;;12.47;10.80;;;;;;;7.02;66.17;94846.91;4960268;28;20184;-64
2023/03/03 08:34:22;;;;;;;11.80;10.60;;;;;;;6.93;66.04;94847.72;4959851;28;20224;-66
2023/03/03 08:36:48;;;;;;;12.53;11.23;;;;;;;7.07;65.79;94849.13;4964439;28;20224;-67
2023/03/03 08:39:13;;;;;;;13.63;11.60;;;;;;;7.06;66.14;94847.47;4966170;28;20270;-67
2023/03/03 08:41:42;;;;;;;14.03;12.03;;;;;;;7.12;66.13;94848.72;4963829;28;20252;-66
2023/03/03 08:44:08;;;;;;;14.17;12.67;;;;;;;7.10;66.39;94850.63;4964843;28;20214;-67
2023/03/03 08:46:33;;;;;;;15.03;13.07;;;;;;;6.93;67.33;94847.72;4964270;28;20232;-66
2023/03/03 08:48:59;;;;;;;16.63;13.20;;;;;;;7.11;66.65;94850.50;4964585;28;20232;-67
2023/03/03 08:51:25;;;;;;;16.10;13.80;;;;;;;7.04;67.20;94849.38;4963996;28;20628;-65
2023/03/03 08:53:51;;;;;;;16.57;14.80;;;;;;;7.01;67.73;94849.66;4962429;28;20238;-66
2023/03/03 08:56:16;;;;;;;15.10;13.47;;;;;;;6.86;66.91;94849.19;4961063;28;20189;-66
2023/03/03 08:58:46;;;;;;;17.37;13.93;;;;;;;6.95;67.52;94855.41;4961946;28;20224;-66
2023/03/03 09:01:14;;;;;;;13.97;12.47;;;;;;;7.23;67.35;94853.81;4962815;28;20255;-66
2023/03/03 09:03:40;;;;;;;14.30;12.20;;;;;;;7.31;66.42;94856.59;4964200;28;20254;-67
2023/03/03 09:06:05;;;;;;;14.00;12.07;;;;;;;7.34;66.28;94851.09;4968025;28;20228;-66
2023/03/03 09:08:31;;;;;;;13.47;10.73;;;;;;;7.51;65.84;94858.28;4962910;28;20196;-66
2023/03/03 09:10:56;;;;;;;13.73;11.20;;;;;;;7.45;66.03;94852.75;4964942;28;20232;-67
2023/03/03 09:13:22;;;;;;;12.97;11.03;;;;;;;6.88;67.27;94849.06;4965498;28;20310;-66
2023/03/03 09:15:48;;;;;;;13.40;11.17;;;;;;;7.29;67.15;94851.47;4959837;28;20227;-66
2023/03/03 09:18:24;;;;;;;13.00;11.60;;;;;;;7.53;66.04;94845.03;4964397;28;20231;-67
2023/03/03 09:20:56;;;;;;;13.27;9.63;;;;;;;7.57;65.50;94850.84;4962319;28;20242;-66
2023/03/03 09:23:28;;;;;;;11.90;10.63;;;;;;;7.57;65.85;94848.22;4960154;28;20184;-67
2023/03/03 09:25:53;;;;;;;13.30;10.23;;;;;;;7.64;65.93;94841.44;4968632;28;20284;-66
2023/03/03 09:28:27;;;;;;;11.17;10.00;;;;;;;7.50;66.23;94851.38;4961834;28;20351;-66
2023/03/03 09:30:55;;;;;;;12.87;11.20;;;;;;;7.57;66.34;94843.00;4962970;28;20537;-65
2023/03/03 09:33:30;;;;;;;13.40;9.77;;;;;;;7.60;66.43;94845.31;4961873;28;20228;-65
2023/03/03 09:36:25;;;;;;;12.47;10.13;;;;;;;7.62;64.79;94852.06;4959219;28;20230;-66
2023/03/03 09:38:52;;;;;;;12.30;10.73;;;;;;;7.25;66.17;94850.13;4961764;28;20240;-65
2023/03/03 09:41:32;;;;;;;11.13;10.00;;;;;;;7.59;66.41;94846.28;4966559;28;20220;-65
2023/03/03 09:44:48;;;;;;;9.73;8.80;;;;;;;7.52;64.19;94853.84;4969041;28;20254;-65
2023/03/03 09:47:39;;;;;;;10.63;9.63;;;;;;;7.31;65.33;94851.34;4966395;28;20242;-65
2023/03/03 09:50:35;;;;;;;12.07;10.87;;;;;;;7.58;66.05;94855.91;4962780;28;20231;-66
2023/03/03 09:53:25;;;;;;;10.60;9.50;;;;;;;7.62;65.71;94852.06;4965888;28;20278;-65
2023/03/03 09:56:06;;;;;;;12.00;10.80;;;;;;;7.72;65.65;94845.06;4981932;28;20216;-66
2023/03/03 09:58:53;;;;;;;11.93;10.73;;;;;;;7.76;65.91;94845.59;4965760;28;20215;-65
2023/03/03 10:01:53;;;;;;;12.77;10.87;;;;;;;7.83;65.15;94846.69;4949887;28;20811;-66
2023/03/03 10:04:21;;;;;;;11.23;9.80;;;;;;;7.88;64.50;94841.84;4961112;28;20331;-65
2023/03/03 10:07:07;;;;;;;13.87;10.13;;;;;;;7.89;63.46;94842.69;4966145;28;20228;-65
2023/03/03 10:10:03;;;;;;;11.07;9.97;;;;;;;7.85;63.71;94844.75;4968455;28;20227;-66
2023/03/03 10:13:04;;;;;;;11.17;9.87;;;;;;;7.97;63.52;94845.44;4964491;28;20343;-65
2023/03/03 10:15:45;;;;;;;10.33;9.30;;;;;;;7.94;62.61;94835.25;4905947;29;20230;-68
2023/03/03 10:18:44;;;;;;;9.93;9.00;;;;;;;7.95;62.47;94832.47;4897074;29;20226;-70
2023/03/03 10:21:24;;;;;;;9.83;8.83;;;;;;;8.00;62.45;94836.47;4906654;29;20238;-68
2023/03/03 10:23:53;;;;;;;9.17;8.27;;;;;;;8.07;61.76;94829.69;4896280;29;20276;-68
2023/03/03 10:26:21;;;;;;;10.13;8.90;;;;;;;8.10;61.19;94830.25;4905668;29;20353;-68
2023/03/03 10:29:06;;;;;;;10.30;9.00;;;;;;;8.00;62.18;94820.78;4891039;29;20306;-67
2023/03/03 10:31:52;;;;;;;11.63;10.37;;;;;;;8.10;62.78;94819.78;4888935;29;20273;-68
2023/03/03 10:34:32;;;;;;;10.23;9.17;;;;;;;8.14;62.85;94818.50;4874270;29;20282;-68
2023/03/03 10:37:16;;;;;;;11.00;9.90;;;;;;;7.55;62.69;94831.81;4884557;29;20226;-68
2023/03/03 10:40:15;;;;;;;11.53;9.60;;;;;;;7.78;63.53;94822.72;4875138;29;20222;-68
2023/03/03 10:42:59;;;;;;;11.33;10.20;;;;;;;8.03;62.78;94818.69;4874511;29;20230;-68
2023/03/03 10:45:43;;;;;;;11.20;10.10;;;;;;;8.01;62.46;94815.38;4872547;29;20234;-68
2023/03/03 10:48:27;;;;;;;10.03;9.13;;;;;;;7.84;62.59;94814.31;4872034;29;20241;-68
2023/03/03 10:51:13;;;;;;;10.47;9.47;;;;;;;7.93;63.00;94818.69;4875200;29;20230;-67
2023/03/03 10:54:08;;;;;;;9.33;8.47;;;;;;;8.10;62.71;94813.69;4957159;28;20597;-67
2023/03/03 10:56:46;;;;;;;9.50;8.70;;;;;;;7.96;62.47;94807.13;4936841;28;20242;-68
2023/03/03 10:59:38;;;;;;;10.70;9.70;;;;;;;7.95;62.25;94803.69;4945799;28;20314;-68
2023/03/03 11:02:06;;;;;;;10.40;9.50;;;;;;;7.88;62.53;94797.34;4965471;28;20366;-68
2023/03/03 11:04:43;;;;;;;11.50;10.40;;;;;;;7.88;62.59;94791.28;4961672;28;20358;-67
2023/03/03 11:07:25;;;;;;;11.63;9.93;;;;;;;7.84;63.06;94795.16;4946985;28;20220;-67
2023/03/03 11:10:37;;;;;;;11.87;10.63;;;;;;;7.94;63.40;94802.03;4947299;28;20234;-67
2023/03/03 11:13:34;;;;;;;10.27;9.37;;;;;;;7.85;63.12;94797.63;4968145;28;20223;-65
2023/03/03 11:16:13;;;;;;;12.57;10.60;;;;;;;7.82;62.33;94790.06;4951204;28;20227;-65
2023/03/03 11:19:00;;;;;;;11.33;10.27;;;;;;;7.78;62.79;94788.72;4961742;28;20229;-65
2023/03/03 11:21:55;;;;;;;12.80;11.60;;;;;;;7.32;63.88;94784.19;4963232;28;20322;-66
2023/03/03 11:24:34;;;;;;;11.93;10.93;;;;;;;7.52;64.02;94783.22;4947077;28;20326;-66
2023/03/03 11:27:16;;;;;;;12.57;11.40;;;;;;;7.21;64.12;94782.53;4952818;28;20249;-65
2023/03/03 11:30:16;;;;;;;12.97;11.63;;;;;;;7.44;63.69;94786.53;4947856;28;20329;-65
2023/03/03 11:32:59;;;;;;;13.37;11.63;;;;;;;7.50;64.12;94788.56;4948643;28;20539;-63
2023/03/03 11:35:39;;;;;;;13.17;11.87;;;;;;;7.58;64.21;94787.06;4966516;28;20661;-64
2023/03/03 11:38:15;;;;;;;12.90;11.63;;;;;;;7.30;64.31;94784.34;4960534;28;20257;-64
2023/03/03 11:40:52;;;;;;;12.97;11.77;;;;;;;7.39;64.70;94780.88;4960536;28;20248;-64
2023/03/03 11:43:24;;;;;;;15.97;14.40;;;;;;;7.32;64.79;94779.75;4967502;28;20230;-65
2023/03/03 11:45:55;;;;;;;15.30;13.80;;;;;;;7.45;64.83;94775.09;4971902;28;20224;-64
2023/03/03 11:48:38;;;;;;;15.67;14.17;;;;;;;7.49;64.69;94770.41;4966158;28;20283;-65
2023/03/03 11:51:22;;;;;;;16.43;14.83;;;;;;;7.53;65.09;94770.94;4949401;28;20232;-65
2023/03/03 11:53:57;;;;;;;17.00;15.27;;;;;;;7.55;65.58;94761.19;4965576;28;20223;-65
2023/03/03 11:56:33;;;;;;;15.90;14.30;;;;;;;7.46;66.14;94770.69;4965849;28;20228;-66